Byron Hills, Illinois
Current Conditions -  °F | °C
As of 1:52 PM on Sunday 28 Dec 2014 (Local Time) from KDVN Reporting Station
Clear Clear  
Wind Chill: 26°   Ceiling: Unl
Heat Index: 32°   Visibility: 10mi
Dew Point: 16°   Wind: 7mph
Humidity: 52%   Direction: 230°SW
Pressure: 30.17"   Gusts: NA
Location:  41.595°N, 90.2974°W
Report Text: KDVN 281952Z AUTO 23006KT 10SM CLR 00/M09 A3017 RMK AO2 SLP228 T00001089
Loading
Personal Weather Stations






























Interactive Weather Map New forecast layout! Learn more

10-Day Weather Forecast

Advertisements
Track Severe Weather on mobile